sensor_id;sensor_type;location;lat;lon;timestamp;pressure;altitude;pressure_sealevel;temperature;humidity
33731;BME280;22931;48.636;9.000;2023-08-06T00:02:59;95319.94;;;19.04;57.14
33731;BME280;22931;48.636;9.000;2023-08-06T00:08:09;95313.91;;;19.00;57.21
33731;BME280;22931;48.636;9.000;2023-08-06T00:13:17;95312.91;;;18.90;57.31
33731;BME280;22931;48.636;9.000;2023-08-06T00:18:24;95313.38;;;18.82;57.12
33731;BME280;22931;48.636;9.000;2023-08-06T00:23:35;95325.66;;;18.76;57.22
33731;BME280;22931;48.636;9.000;2023-08-06T00:28:42;95325.00;;;18.68;57.13
33731;BME280;22931;48.636;9.000;2023-08-06T00:33:50;95322.44;;;18.58;56.96
33731;BME280;22931;48.636;9.000;2023-08-06T00:39:00;95315.28;;;18.51;57.57
33731;BME280;22931;48.636;9.000;2023-08-06T00:44:07;95298.59;;;18.43;57.66
33731;BME280;22931;48.636;9.000;2023-08-06T00:49:15;95291.06;;;18.35;57.55
33731;BME280;22931;48.636;9.000;2023-08-06T00:54:27;95292.25;;;18.34;58.04
33731;BME280;22931;48.636;9.000;2023-08-06T00:59:35;95278.25;;;18.26;57.68
33731;BME280;22931;48.636;9.000;2023-08-06T01:04:42;95267.63;;;18.23;58.13
33731;BME280;22931;48.636;9.000;2023-08-06T01:09:59;95276.78;;;18.22;58.60
33731;BME280;22931;48.636;9.000;2023-08-06T01:15:13;95274.56;;;18.13;58.24
33731;BME280;22931;48.636;9.000;2023-08-06T01:20:28;95270.16;;;18.03;58.27
33731;BME280;22931;48.636;9.000;2023-08-06T01:25:43;95264.84;;;18.00;58.51
33731;BME280;22931;48.636;9.000;2023-08-06T01:30:55;95263.38;;;17.95;58.11
33731;BME280;22931;48.636;9.000;2023-08-06T01:36:09;95266.41;;;17.94;58.69
33731;BME280;22931;48.636;9.000;2023-08-06T01:41:18;95259.63;;;17.89;58.09
33731;BME280;22931;48.636;9.000;2023-08-06T01:46:26;95267.31;;;17.84;58.32
33731;BME280;22931;48.636;9.000;2023-08-06T01:51:36;95265.78;;;17.79;58.35
33731;BME280;22931;48.636;9.000;2023-08-06T01:56:44;95262.09;;;17.69;58.37
33731;BME280;22931;48.636;9.000;2023-08-06T02:01:51;95254.16;;;17.62;58.44
33731;BME280;22931;48.636;9.000;2023-08-06T02:07:02;95245.47;;;17.58;58.31
33731;BME280;22931;48.636;9.000;2023-08-06T02:12:09;95234.50;;;17.49;58.53
33731;BME280;22931;48.636;9.000;2023-08-06T02:17:17;95233.06;;;17.41;58.67
33731;BME280;22931;48.636;9.000;2023-08-06T02:22:27;95217.16;;;17.34;58.64
33731;BME280;22931;48.636;9.000;2023-08-06T02:27:35;95203.94;;;17.27;58.49
33731;BME280;22931;48.636;9.000;2023-08-06T02:32:44;95203.94;;;17.24;58.51
33731;BME280;22931;48.636;9.000;2023-08-06T02:37:54;95198.25;;;17.25;58.88
33731;BME280;22931;48.636;9.000;2023-08-06T02:43:02;95196.31;;;17.26;59.08
33731;BME280;22931;48.636;9.000;2023-08-06T02:48:09;95194.78;;;17.28;58.80
33731;BME280;22931;48.636;9.000;2023-08-06T02:53:19;95178.81;;;17.32;59.26
33731;BME280;22931;48.636;9.000;2023-08-06T02:58:27;95184.91;;;17.32;59.09
33731;BME280;22931;48.636;9.000;2023-08-06T03:03:35;95173.44;;;17.35;59.04
33731;BME280;22931;48.636;9.000;2023-08-06T03:08:45;95170.75;;;17.42;59.34
33731;BME280;22931;48.636;9.000;2023-08-06T03:13:55;95160.47;;;17.44;59.04
33731;BME280;22931;48.636;9.000;2023-08-06T03:19:04;95156.63;;;17.45;59.06
33731;BME280;22931;48.636;9.000;2023-08-06T03:24:14;95159.69;;;17.47;58.91
33731;BME280;22931;48.636;9.000;2023-08-06T03:29:21;95161.16;;;17.48;59.14
33731;BME280;22931;48.636;9.000;2023-08-06T03:34:29;95170.31;;;17.47;59.19
33731;BME280;22931;48.636;9.000;2023-08-06T03:39:40;95164.19;;;17.50;58.97
33731;BME280;22931;48.636;9.000;2023-08-06T03:44:47;95159.63;;;17.51;59.14
33731;BME280;22931;48.636;9.000;2023-08-06T03:49:55;95149.75;;;17.51;59.33
33731;BME280;22931;48.636;9.000;2023-08-06T03:55:06;95139.84;;;17.55;59.12
33731;BME280;22931;48.636;9.000;2023-08-06T04:00:14;95144.41;;;17.55;59.29
33731;BME280;22931;48.636;9.000;2023-08-06T04:05:21;95145.16;;;17.55;59.17
33731;BME280;22931;48.636;9.000;2023-08-06T04:10:32;95150.84;;;17.57;59.23
33731;BME280;22931;48.636;9.000;2023-08-06T04:15:39;95151.94;;;17.60;59.43
33731;BME280;22931;48.636;9.000;2023-08-06T04:20:47;95166.78;;;17.57;59.24
33731;BME280;22931;48.636;9.000;2023-08-06T04:25:58;95176.66;;;17.60;59.78
33731;BME280;22931;48.636;9.000;2023-08-06T04:31:08;95184.28;;;17.58;59.72
33731;BME280;22931;48.636;9.000;2023-08-06T04:36:17;95179.75;;;17.55;59.56
33731;BME280;22931;48.636;9.000;2023-08-06T04:41:27;95178.97;;;17.55;59.96
33731;BME280;22931;48.636;9.000;2023-08-06T04:46:34;95177.13;;;17.52;59.50
33731;BME280;22931;48.636;9.000;2023-08-06T04:51:42;95183.97;;;17.49;59.87
33731;BME280;22931;48.636;9.000;2023-08-06T04:56:53;95193.84;;;17.49;59.99
33731;BME280;22931;48.636;9.000;2023-08-06T05:02:00;95184.75;;;17.46;60.11
33731;BME280;22931;48.636;9.000;2023-08-06T05:07:10;95183.22;;;17.45;60.83
33731;BME280;22931;48.636;9.000;2023-08-06T05:12:22;95179.44;;;17.46;60.67
33731;BME280;22931;48.636;9.000;2023-08-06T05:17:29;95181.69;;;17.48;60.58
33731;BME280;22931;48.636;9.000;2023-08-06T05:22:37;95177.13;;;17.52;60.60
33731;BME280;22931;48.636;9.000;2023-08-06T05:27:47;95179.66;;;17.62;61.20
33731;BME280;22931;48.636;9.000;2023-08-06T05:32:54;95185.69;;;17.70;61.06
33731;BME280;22931;48.636;9.000;2023-08-06T05:38:02;95195.09;;;17.78;60.91
33731;BME280;22931;48.636;9.000;2023-08-06T05:43:13;95202.31;;;17.81;60.76
33731;BME280;22931;48.636;9.000;2023-08-06T05:48:20;95206.47;;;17.82;60.42
33731;BME280;22931;48.636;9.000;2023-08-06T05:53:29;95209.53;;;17.80;60.10
33731;BME280;22931;48.636;9.000;2023-08-06T05:58:39;95214.84;;;17.80;60.73
33731;BME280;22931;48.636;9.000;2023-08-06T06:03:47;95200.44;;;17.78;60.29
33731;BME280;22931;48.636;9.000;2023-08-06T06:08:55;95194.75;;;17.76;60.68
33731;BME280;22931;48.636;9.000;2023-08-06T06:14:08;95199.66;;;17.77;60.63
33731;BME280;22931;48.636;9.000;2023-08-06T06:19:15;95209.59;;;17.73;60.46
33731;BME280;22931;48.636;9.000;2023-08-06T06:24:23;95202.81;;;17.69;60.48
33731;BME280;22931;48.636;9.000;2023-08-06T06:29:33;95218.81;;;17.65;61.28
33731;BME280;22931;48.636;9.000;2023-08-06T06:34:41;95217.31;;;17.61;60.71
33731;BME280;22931;48.636;9.000;2023-08-06T06:39:48;95228.00;;;17.57;60.86
33731;BME280;22931;48.636;9.000;2023-08-06T06:44:59;95228.00;;;17.57;61.24
33731;BME280;22931;48.636;9.000;2023-08-06T06:50:07;95221.97;;;17.53;60.93
33731;BME280;22931;48.636;9.000;2023-08-06T06:55:15;95229.56;;;17.48;60.98
33731;BME280;22931;48.636;9.000;2023-08-06T07:00:25;95214.78;;;17.43;61.47
33731;BME280;22931;48.636;9.000;2023-08-06T07:05:33;95223.56;;;17.40;61.36
33731;BME280;22931;48.636;9.000;2023-08-06T07:10:41;95220.19;;;17.36;61.90
33731;BME280;22931;48.636;9.000;2023-08-06T07:15:52;95221.69;;;17.37;62.51
33731;BME280;22931;48.636;9.000;2023-08-06T07:20:59;95227.03;;;17.37;61.89
33731;BME280;22931;48.636;9.000;2023-08-06T07:26:07;95232.72;;;17.36;62.37
33731;BME280;22931;48.636;9.000;2023-08-06T07:31:19;95233.47;;;17.36;62.53
33731;BME280;22931;48.636;9.000;2023-08-06T07:36:32;95240.31;;;17.37;62.22
33731;BME280;22931;48.636;9.000;2023-08-06T07:41:47;95249.06;;;17.34;61.71
33731;BME280;22931;48.636;9.000;2023-08-06T07:47:04;95246.78;;;17.36;63.14
33731;BME280;22931;48.636;9.000;2023-08-06T07:52:12;95238.84;;;17.33;62.73
33731;BME280;22931;48.636;9.000;2023-08-06T07:57:19;95246.41;;;17.34;62.79
33731;BME280;22931;48.636;9.000;2023-08-06T08:02:29;95251.31;;;17.39;62.90
33731;BME280;22931;48.636;9.000;2023-08-06T08:07:37;95250.53;;;17.42;62.75
33731;BME280;22931;48.636;9.000;2023-08-06T08:12:45;95249.72;;;17.45;62.70
33731;BME280;22931;48.636;9.000;2023-08-06T08:17:59;95251.97;;;17.50;62.95
33731;BME280;22931;48.636;9.000;2023-08-06T08:23:07;95245.16;;;17.49;62.79
33731;BME280;22931;48.636;9.000;2023-08-06T08:28:15;95253.13;;;17.49;62.60
33731;BME280;22931;48.636;9.000;2023-08-06T08:33:25;95253.50;;;17.51;62.94
33731;BME280;22931;48.636;9.000;2023-08-06T08:38:33;95253.50;;;17.51;62.30
33731;BME280;22931;48.636;9.000;2023-08-06T08:43:41;95249.31;;;17.50;62.64
33731;BME280;22931;48.636;9.000;2023-08-06T08:48:52;95256.16;;;17.51;62.94
33731;BME280;22931;48.636;9.000;2023-08-06T08:54:01;95256.41;;;17.67;62.86
33731;BME280;22931;48.636;9.000;2023-08-06T08:59:10;95253.88;;;17.57;63.46
33731;BME280;22931;48.636;9.000;2023-08-06T09:04:20;95246.53;;;17.64;63.61
33731;BME280;22931;48.636;9.000;2023-08-06T09:09:31;95255.19;;;17.75;63.75
33731;BME280;22931;48.636;9.000;2023-08-06T09:14:39;95258.06;;;17.92;63.88
33731;BME280;22931;48.636;9.000;2023-08-06T09:19:49;95256.78;;;18.07;64.67
33731;BME280;22931;48.636;9.000;2023-08-06T09:24:57;95258.50;;;18.24;63.97
33731;BME280;22931;48.636;9.000;2023-08-06T09:30:06;95269.72;;;18.38;64.00
33731;BME280;22931;48.636;9.000;2023-08-06T09:35:19;95271.03;;;18.57;64.08
33731;BME280;22931;48.636;9.000;2023-08-06T09:40:28;95270.25;;;18.60;63.01
33731;BME280;22931;48.636;9.000;2023-08-06T09:45:38;95266.38;;;18.65;63.02
33731;BME280;22931;48.636;9.000;2023-08-06T09:51:00;95263.28;;;18.70;62.82
33731;BME280;22931;48.636;9.000;2023-08-06T09:56:12;95282.47;;;18.58;62.77
33731;BME280;22931;48.636;9.000;2023-08-06T10:01:24;95278.78;;;18.48;62.15
33731;BME280;22931;48.636;9.000;2023-08-06T10:06:35;95276.53;;;18.43;62.47
33731;BME280;22931;48.636;9.000;2023-08-06T10:11:43;95285.75;;;18.35;62.58
33731;BME280;22931;48.636;9.000;2023-08-06T10:16:53;95290.78;;;18.29;62.89
33731;BME280;22931;48.636;9.000;2023-08-06T10:22:14;95293.00;;;18.34;64.31
33731;BME280;22931;48.636;9.000;2023-08-06T10:27:28;95304.81;;;18.33;63.27
33731;BME280;22931;48.636;9.000;2023-08-06T10:32:47;95309.72;;;18.35;63.28
33731;BME280;22931;48.636;9.000;2023-08-06T10:38:03;95321.56;;;18.34;63.33
33731;BME280;22931;48.636;9.000;2023-08-06T10:43:25;95314.69;;;18.33;63.10
33731;BME280;22931;48.636;9.000;2023-08-06T10:48:35;95320.88;;;18.23;63.08
33731;BME280;22931;48.636;9.000;2023-08-06T10:53:47;95327.38;;;18.22;62.87
33731;BME280;22931;48.636;9.000;2023-08-06T10:58:56;95319.47;;;18.15;63.19
33731;BME280;22931;48.636;9.000;2023-08-06T11:04:04;95333.94;;;18.14;63.25
33731;BME280;22931;48.636;9.000;2023-08-06T11:09:15;95341.13;;;18.17;63.54
33731;BME280;22931;48.636;9.000;2023-08-06T11:14:22;95349.13;;;18.17;63.12
33731;BME280;22931;48.636;9.000;2023-08-06T11:19:30;95351.78;;;18.17;63.17
33731;BME280;22931;48.636;9.000;2023-08-06T11:24:40;95358.22;;;18.19;63.06
33731;BME280;22931;48.636;9.000;2023-08-06T11:29:48;95356.69;;;18.22;62.95
33731;BME280;22931;48.636;9.000;2023-08-06T11:34:56;95356.25;;;18.27;63.13
33731;BME280;22931;48.636;9.000;2023-08-06T11:40:08;95367.19;;;18.36;63.51
33731;BME280;22931;48.636;9.000;2023-08-06T11:45:21;95368.28;;;18.42;63.52
33731;BME280;22931;48.636;9.000;2023-08-06T11:50:29;95379.69;;;18.42;62.96
33731;BME280;22931;48.636;9.000;2023-08-06T11:55:41;95387.66;;;18.46;63.09
33731;BME280;22931;48.636;9.000;2023-08-06T12:00:49;95381.94;;;18.48;62.63
33731;BME280;22931;48.636;9.000;2023-08-06T12:05:56;95396.78;;;18.45;62.30
33731;BME280;22931;48.636;9.000;2023-08-06T12:11:06;95404.03;;;18.44;62.12
33731;BME280;22931;48.636;9.000;2023-08-06T12:16:14;95423.13;;;18.39;61.99
33731;BME280;22931;48.636;9.000;2023-08-06T12:21:23;95421.25;;;18.33;61.63
33731;BME280;22931;48.636;9.000;2023-08-06T12:26:33;95419.75;;;18.32;61.70
33731;BME280;22931;48.636;9.000;2023-08-06T12:31:43;95425.09;;;18.28;61.60
33731;BME280;22931;48.636;9.000;2023-08-06T12:36:52;95414.09;;;18.26;61.71
33731;BME280;22931;48.636;9.000;2023-08-06T12:42:04;95423.19;;;18.29;61.75
33731;BME280;22931;48.636;9.000;2023-08-06T12:47:13;95433.50;;;18.27;61.68
33731;BME280;22931;48.636;9.000;2023-08-06T12:52:22;95447.16;;;18.32;61.78
33731;BME280;22931;48.636;9.000;2023-08-06T12:57:32;95431.84;;;18.40;61.60
33731;BME280;22931;48.636;9.000;2023-08-06T13:03:00;95448.22;;;18.42;61.19
33731;BME280;22931;48.636;9.000;2023-08-06T13:08:09;95448.56;;;18.48;61.56
33731;BME280;22931;48.636;9.000;2023-08-06T13:13:19;95440.09;;;18.56;61.29
33731;BME280;22931;48.636;9.000;2023-08-06T13:18:27;95440.06;;;18.60;61.55
33731;BME280;22931;48.636;9.000;2023-08-06T13:23:35;95451.41;;;18.67;60.86
33731;BME280;22931;48.636;9.000;2023-08-06T13:28:46;95462.75;;;18.75;60.35
33731;BME280;22931;48.636;9.000;2023-08-06T13:33:54;95464.63;;;18.78;60.39
33731;BME280;22931;48.636;9.000;2023-08-06T13:39:02;95475.25;;;18.81;60.43
33731;BME280;22931;48.636;9.000;2023-08-06T13:44:13;95483.19;;;18.88;60.64
33731;BME280;22931;48.636;9.000;2023-08-06T13:49:21;95482.75;;;18.93;60.85
33731;BME280;22931;48.636;9.000;2023-08-06T13:54:28;95490.31;;;18.98;60.56
33731;BME280;22931;48.636;9.000;2023-08-06T13:59:38;95499.34;;;19.08;60.62
33731;BME280;22931;48.636;9.000;2023-08-06T14:04:48;95477.63;;;19.09;60.28
33731;BME280;22931;48.636;9.000;2023-08-06T14:09:56;95488.66;;;19.11;59.57
33731;BME280;22931;48.636;9.000;2023-08-06T14:15:08;95500.84;;;19.13;59.36
33731;BME280;22931;48.636;9.000;2023-08-06T14:20:16;95502.41;;;19.06;59.70
33731;BME280;22931;48.636;9.000;2023-08-06T14:25:24;95507.44;;;19.01;59.79
33731;BME280;22931;48.636;9.000;2023-08-06T14:30:34;95523.47;;;18.97;59.55
33731;BME280;22931;48.636;9.000;2023-08-06T14:35:42;95508.25;;;18.94;59.23
33731;BME280;22931;48.636;9.000;2023-08-06T14:40:50;95539.91;;;18.92;59.16
33731;BME280;22931;48.636;9.000;2023-08-06T14:46:00;95544.47;;;18.92;59.00
33731;BME280;22931;48.636;9.000;2023-08-06T14:51:08;95568.88;;;18.90;59.34
33731;BME280;22931;48.636;9.000;2023-08-06T14:56:15;95567.72;;;18.91;59.40
33731;BME280;22931;48.636;9.000;2023-08-06T15:01:26;95574.94;;;18.94;58.91
33731;BME280;22931;48.636;9.000;2023-08-06T15:06:33;95592.84;;;18.94;58.75
33731;BME280;22931;48.636;9.000;2023-08-06T15:11:41;95600.53;;;18.88;58.91
33731;BME280;22931;48.636;9.000;2023-08-06T15:16:51;95601.31;;;18.82;58.70
33731;BME280;22931;48.636;9.000;2023-08-06T15:22:02;95607.53;;;18.68;59.09
33731;BME280;22931;48.636;9.000;2023-08-06T15:27:10;95598.06;;;18.60;59.20
33731;BME280;22931;48.636;9.000;2023-08-06T15:32:21;95598.84;;;18.57;59.58
33731;BME280;22931;48.636;9.000;2023-08-06T15:37:29;95593.91;;;18.56;59.39
33731;BME280;22931;48.636;9.000;2023-08-06T15:42:37;95611.38;;;18.60;59.73
33731;BME280;22931;48.636;9.000;2023-08-06T15:47:47;95602.19;;;18.68;59.94
33731;BME280;22931;48.636;9.000;2023-08-06T15:52:55;95614.34;;;18.76;59.25
33731;BME280;22931;48.636;9.000;2023-08-06T15:58:03;95618.44;;;18.84;59.00
33731;BME280;22931;48.636;9.000;2023-08-06T16:03:13;95621.03;;;18.91;58.89
33731;BME280;22931;48.636;9.000;2023-08-06T16:08:23;95632.53;;;18.88;58.89
33731;BME280;22931;48.636;9.000;2023-08-06T16:13:32;95641.13;;;19.06;57.94
33731;BME280;22931;48.636;9.000;2023-08-06T16:18:42;95636.03;;;18.75;57.93
33731;BME280;22931;48.636;9.000;2023-08-06T16:23:50;95632.72;;;18.60;58.25
33731;BME280;22931;48.636;9.000;2023-08-06T16:28:58;95648.75;;;18.50;58.52
33731;BME280;22931;48.636;9.000;2023-08-06T16:34:08;95650.31;;;18.43;58.16
33731;BME280;22931;48.636;9.000;2023-08-06T16:39:15;95658.72;;;18.35;57.90
33731;BME280;22931;48.636;9.000;2023-08-06T16:44:29;95667.88;;;18.30;57.73
33731;BME280;22931;48.636;9.000;2023-08-06T16:49:39;95687.31;;;18.24;57.98
33731;BME280;22931;48.636;9.000;2023-08-06T16:54:48;95685.09;;;18.15;58.18
33731;BME280;22931;48.636;9.000;2023-08-06T16:59:55;95683.19;;;18.09;58.26
33731;BME280;22931;48.636;9.000;2023-08-06T17:05:07;95688.91;;;18.04;57.73
33731;BME280;22931;48.636;9.000;2023-08-06T17:10:15;95690.09;;;17.96;58.24
33731;BME280;22931;48.636;9.000;2023-08-06T17:15:27;95706.09;;;17.89;58.10
33731;BME280;22931;48.636;9.000;2023-08-06T17:20:40;95719.03;;;17.79;58.08
33731;BME280;22931;48.636;9.000;2023-08-06T17:25:48;95725.94;;;17.66;58.29
33731;BME280;22931;48.636;9.000;2023-08-06T17:30:55;95722.88;;;17.57;58.47
33731;BME280;22931;48.636;9.000;2023-08-06T17:36:06;95731.63;;;17.47;58.48
33731;BME280;22931;48.636;9.000;2023-08-06T17:41:14;95733.53;;;17.36;58.80
33731;BME280;22931;48.636;9.000;2023-08-06T17:46:22;95738.84;;;17.29;59.09
33731;BME280;22931;48.636;9.000;2023-08-06T17:51:32;95736.16;;;17.26;59.39
33731;BME280;22931;48.636;9.000;2023-08-06T17:56:40;95738.09;;;17.22;58.97
33731;BME280;22931;48.636;9.000;2023-08-06T18:01:49;95737.34;;;17.17;59.11
33731;BME280;22931;48.636;9.000;2023-08-06T18:06:59;95747.19;;;17.17;59.44
33731;BME280;22931;48.636;9.000;2023-08-06T18:12:08;95755.94;;;17.14;59.29
33731;BME280;22931;48.636;9.000;2023-08-06T18:17:15;95753.28;;;17.10;59.34
33731;BME280;22931;48.636;9.000;2023-08-06T18:22:26;95760.88;;;17.12;59.35
33731;BME280;22931;48.636;9.000;2023-08-06T18:27:34;95767.69;;;17.09;58.79
33731;BME280;22931;48.636;9.000;2023-08-06T18:32:41;95767.31;;;17.07;59.44
33731;BME280;22931;48.636;9.000;2023-08-06T18:37:52;95784.03;;;17.08;59.03
